sensor_id;sensor_type;location;lat;lon;timestamp;P1;durP1;ratioP1;P2;durP2;ratioP2
69991;SDS011;57332;51.320;-0.580;2023-06-10T00:00:26;14.55;;;6.95;;
69991;SDS011;57332;51.320;-0.580;2023-06-10T00:02:54;15.15;;;7.30;;
69991;SDS011;57332;51.320;-0.580;2023-06-10T00:05:21;16.73;;;7.40;;
69991;SDS011;57332;51.320;-0.580;2023-06-10T00:07:48;15.13;;;7.32;;
69991;SDS011;57332;51.320;-0.580;2023-06-10T00:10:16;12.93;;;6.80;;
69991;SDS011;57332;51.320;-0.580;2023-06-10T00:12:43;16.02;;;6.82;;
69991;SDS011;57332;51.320;-0.580;2023-06-10T00:15:10;15.52;;;7.13;;
69991;SDS011;57332;51.320;-0.580;2023-06-10T00:17:38;15.98;;;6.82;;
69991;SDS011;57332;51.320;-0.580;2023-06-10T00:20:07;14.18;;;6.90;;
69991;SDS011;57332;51.320;-0.580;2023-06-10T00:22:35;15.27;;;6.72;;
69991;SDS011;57332;51.320;-0.580;2023-06-10T00:25:03;16.08;;;7.00;;
69991;SDS011;57332;51.320;-0.580;2023-06-10T00:27:30;16.45;;;6.90;;
69991;SDS011;57332;51.320;-0.580;2023-06-10T00:30:02;13.27;;;6.18;;
69991;SDS011;57332;51.320;-0.580;2023-06-10T00:32:31;15.73;;;6.95;;
69991;SDS011;57332;51.320;-0.580;2023-06-10T00:34:58;14.82;;;6.45;;
69991;SDS011;57332;51.320;-0.580;2023-06-10T00:37:25;15.80;;;6.70;;
69991;SDS011;57332;51.320;-0.580;2023-06-10T00:39:51;17.02;;;6.38;;
69991;SDS011;57332;51.320;-0.580;2023-06-10T00:42:18;13.07;;;5.78;;
69991;SDS011;57332;51.320;-0.580;2023-06-10T00:44:46;13.80;;;6.07;;
69991;SDS011;57332;51.320;-0.580;2023-06-10T00:47:13;12.00;;;6.43;;
69991;SDS011;57332;51.320;-0.580;2023-06-10T00:49:40;15.00;;;7.25;;
69991;SDS011;57332;51.320;-0.580;2023-06-10T00:52:07;14.48;;;6.22;;
69991;SDS011;57332;51.320;-0.580;2023-06-10T00:54:34;15.10;;;6.43;;
69991;SDS011;57332;51.320;-0.580;2023-06-10T00:57:02;16.50;;;6.90;;
69991;SDS011;57332;51.320;-0.580;2023-06-10T00:59:29;12.10;;;6.53;;
69991;SDS011;57332;51.320;-0.580;2023-06-10T01:01:56;17.70;;;6.93;;
69991;SDS011;57332;51.320;-0.580;2023-06-10T01:04:23;15.52;;;6.93;;
69991;SDS011;57332;51.320;-0.580;2023-06-10T01:06:57;16.40;;;6.68;;
69991;SDS011;57332;51.320;-0.580;2023-06-10T01:12:09;16.35;;;7.15;;
69991;SDS011;57332;51.320;-0.580;2023-06-10T01:14:37;18.70;;;6.40;;
69991;SDS011;57332;51.320;-0.580;2023-06-10T01:17:06;19.33;;;7.50;;
69991;SDS011;57332;51.320;-0.580;2023-06-10T01:19:34;18.02;;;7.07;;
69991;SDS011;57332;51.320;-0.580;2023-06-10T01:22:03;14.80;;;6.50;;
69991;SDS011;57332;51.320;-0.580;2023-06-10T01:24:30;19.15;;;6.80;;
69991;SDS011;57332;51.320;-0.580;2023-06-10T01:27:01;16.88;;;6.45;;
69991;SDS011;57332;51.320;-0.580;2023-06-10T01:29:45;14.93;;;6.40;;
69991;SDS011;57332;51.320;-0.580;2023-06-10T01:32:17;13.80;;;6.40;;
69991;SDS011;57332;51.320;-0.580;2023-06-10T01:34:45;18.75;;;6.40;;
69991;SDS011;57332;51.320;-0.580;2023-06-10T01:37:13;15.05;;;6.55;;
69991;SDS011;57332;51.320;-0.580;2023-06-10T01:39:40;14.40;;;5.82;;
69991;SDS011;57332;51.320;-0.580;2023-06-10T01:42:08;15.13;;;6.63;;
69991;SDS011;57332;51.320;-0.580;2023-06-10T01:44:35;14.25;;;6.50;;
69991;SDS011;57332;51.320;-0.580;2023-06-10T01:47:02;15.98;;;6.28;;
69991;SDS011;57332;51.320;-0.580;2023-06-10T01:49:29;15.40;;;6.57;;
69991;SDS011;57332;51.320;-0.580;2023-06-10T01:51:56;15.35;;;6.30;;
69991;SDS011;57332;51.320;-0.580;2023-06-10T01:54:23;14.35;;;6.00;;
69991;SDS011;57332;51.320;-0.580;2023-06-10T01:56:50;12.70;;;5.80;;
69991;SDS011;57332;51.320;-0.580;2023-06-10T01:59:17;14.93;;;6.25;;
69991;SDS011;57332;51.320;-0.580;2023-06-10T02:01:44;12.82;;;6.03;;
69991;SDS011;57332;51.320;-0.580;2023-06-10T02:04:11;16.15;;;6.18;;
69991;SDS011;57332;51.320;-0.580;2023-06-10T02:06:38;16.52;;;6.30;;
69991;SDS011;57332;51.320;-0.580;2023-06-10T02:09:05;13.60;;;6.05;;
69991;SDS011;57332;51.320;-0.580;2023-06-10T02:11:32;14.98;;;6.57;;
69991;SDS011;57332;51.320;-0.580;2023-06-10T02:13:59;13.18;;;5.75;;
69991;SDS011;57332;51.320;-0.580;2023-06-10T02:16:26;16.38;;;6.10;;
69991;SDS011;57332;51.320;-0.580;2023-06-10T02:18:53;16.15;;;6.00;;
69991;SDS011;57332;51.320;-0.580;2023-06-10T02:21:21;13.68;;;6.32;;
69991;SDS011;57332;51.320;-0.580;2023-06-10T02:23:48;17.35;;;6.35;;
69991;SDS011;57332;51.320;-0.580;2023-06-10T02:26:15;13.98;;;5.75;;
69991;SDS011;57332;51.320;-0.580;2023-06-10T02:28:42;11.15;;;5.55;;
69991;SDS011;57332;51.320;-0.580;2023-06-10T02:31:09;14.50;;;6.13;;
69991;SDS011;57332;51.320;-0.580;2023-06-10T02:33:36;14.98;;;5.75;;
69991;SDS011;57332;51.320;-0.580;2023-06-10T02:36:06;13.20;;;5.88;;
69991;SDS011;57332;51.320;-0.580;2023-06-10T02:38:34;13.63;;;5.82;;
69991;SDS011;57332;51.320;-0.580;2023-06-10T02:41:01;17.27;;;6.05;;
69991;SDS011;57332;51.320;-0.580;2023-06-10T02:43:27;11.80;;;5.65;;
69991;SDS011;57332;51.320;-0.580;2023-06-10T02:45:54;13.43;;;5.90;;
69991;SDS011;57332;51.320;-0.580;2023-06-10T02:48:23;13.95;;;6.07;;
69991;SDS011;57332;51.320;-0.580;2023-06-10T02:50:50;13.75;;;6.00;;
69991;SDS011;57332;51.320;-0.580;2023-06-10T02:53:17;14.40;;;6.05;;
69991;SDS011;57332;51.320;-0.580;2023-06-10T02:55:43;12.05;;;5.53;;
69991;SDS011;57332;51.320;-0.580;2023-06-10T02:58:10;13.73;;;5.90;;
69991;SDS011;57332;51.320;-0.580;2023-06-10T03:00:37;14.45;;;5.55;;
69991;SDS011;57332;51.320;-0.580;2023-06-10T03:03:07;13.43;;;5.97;;
69991;SDS011;57332;51.320;-0.580;2023-06-10T03:05:35;16.15;;;5.85;;
69991;SDS011;57332;51.320;-0.580;2023-06-10T03:08:02;15.80;;;5.85;;
69991;SDS011;57332;51.320;-0.580;2023-06-10T03:10:29;13.63;;;5.18;;
69991;SDS011;57332;51.320;-0.580;2023-06-10T03:12:55;13.35;;;5.70;;
69991;SDS011;57332;51.320;-0.580;2023-06-10T03:15:22;17.85;;;6.35;;
69991;SDS011;57332;51.320;-0.580;2023-06-10T03:17:51;18.83;;;6.13;;
69991;SDS011;57332;51.320;-0.580;2023-06-10T03:20:18;14.60;;;6.38;;
69991;SDS011;57332;51.320;-0.580;2023-06-10T03:22:44;16.63;;;6.25;;
69991;SDS011;57332;51.320;-0.580;2023-06-10T03:25:11;15.55;;;5.80;;
69991;SDS011;57332;51.320;-0.580;2023-06-10T03:27:41;14.02;;;5.60;;
69991;SDS011;57332;51.320;-0.580;2023-06-10T03:30:08;14.73;;;6.43;;
69991;SDS011;57332;51.320;-0.580;2023-06-10T03:32:36;14.40;;;5.55;;
69991;SDS011;57332;51.320;-0.580;2023-06-10T03:35:03;13.27;;;5.88;;
69991;SDS011;57332;51.320;-0.580;2023-06-10T03:37:30;16.13;;;6.28;;
69991;SDS011;57332;51.320;-0.580;2023-06-10T03:39:57;15.45;;;6.28;;
69991;SDS011;57332;51.320;-0.580;2023-06-10T03:42:24;17.95;;;6.30;;
69991;SDS011;57332;51.320;-0.580;2023-06-10T03:44:51;14.60;;;5.60;;
69991;SDS011;57332;51.320;-0.580;2023-06-10T03:47:18;11.95;;;5.85;;
69991;SDS011;57332;51.320;-0.580;2023-06-10T03:49:45;13.05;;;6.40;;
69991;SDS011;57332;51.320;-0.580;2023-06-10T03:52:12;13.68;;;6.05;;
69991;SDS011;57332;51.320;-0.580;2023-06-10T03:54:39;14.20;;;6.05;;
69991;SDS011;57332;51.320;-0.580;2023-06-10T03:57:06;12.80;;;6.28;;
69991;SDS011;57332;51.320;-0.580;2023-06-10T03:59:32;14.82;;;6.55;;
69991;SDS011;57332;51.320;-0.580;2023-06-10T04:01:59;13.75;;;5.97;;
69991;SDS011;57332;51.320;-0.580;2023-06-10T04:04:27;14.32;;;6.15;;
69991;SDS011;57332;51.320;-0.580;2023-06-10T04:06:54;14.40;;;5.85;;
69991;SDS011;57332;51.320;-0.580;2023-06-10T04:09:21;14.10;;;6.50;;
69991;SDS011;57332;51.320;-0.580;2023-06-10T04:11:47;14.63;;;6.18;;
69991;SDS011;57332;51.320;-0.580;2023-06-10T04:14:14;13.43;;;6.47;;
69991;SDS011;57332;51.320;-0.580;2023-06-10T04:16:41;12.25;;;6.15;;
69991;SDS011;57332;51.320;-0.580;2023-06-10T04:19:09;16.02;;;6.30;;
69991;SDS011;57332;51.320;-0.580;2023-06-10T04:21:37;16.10;;;6.82;;
69991;SDS011;57332;51.320;-0.580;2023-06-10T04:24:04;14.02;;;6.22;;
69991;SDS011;57332;51.320;-0.580;2023-06-10T04:26:31;18.30;;;6.53;;
69991;SDS011;57332;51.320;-0.580;2023-06-10T04:28:58;17.70;;;6.28;;
69991;SDS011;57332;51.320;-0.580;2023-06-10T04:31:25;15.55;;;6.32;;
69991;SDS011;57332;51.320;-0.580;2023-06-10T04:33:51;16.40;;;5.82;;
69991;SDS011;57332;51.320;-0.580;2023-06-10T04:36:18;14.75;;;6.65;;
69991;SDS011;57332;51.320;-0.580;2023-06-10T04:38:45;12.80;;;5.90;;
69991;SDS011;57332;51.320;-0.580;2023-06-10T04:41:13;15.68;;;6.90;;
69991;SDS011;57332;51.320;-0.580;2023-06-10T04:43:40;12.30;;;6.47;;
69991;SDS011;57332;51.320;-0.580;2023-06-10T04:46:07;14.50;;;6.40;;
69991;SDS011;57332;51.320;-0.580;2023-06-10T04:48:35;15.30;;;6.20;;
69991;SDS011;57332;51.320;-0.580;2023-06-10T04:51:02;13.50;;;6.93;;
69991;SDS011;57332;51.320;-0.580;2023-06-10T04:53:29;16.13;;;6.53;;
69991;SDS011;57332;51.320;-0.580;2023-06-10T04:55:56;14.65;;;6.50;;
69991;SDS011;57332;51.320;-0.580;2023-06-10T04:58:24;16.52;;;6.40;;
69991;SDS011;57332;51.320;-0.580;2023-06-10T05:00:51;14.80;;;6.43;;
69991;SDS011;57332;51.320;-0.580;2023-06-10T05:03:18;13.32;;;5.93;;
69991;SDS011;57332;51.320;-0.580;2023-06-10T05:05:45;12.85;;;6.90;;
69991;SDS011;57332;51.320;-0.580;2023-06-10T05:08:12;16.38;;;6.80;;
69991;SDS011;57332;51.320;-0.580;2023-06-10T05:10:39;14.57;;;6.70;;
69991;SDS011;57332;51.320;-0.580;2023-06-10T05:13:05;17.90;;;6.72;;
69991;SDS011;57332;51.320;-0.580;2023-06-10T05:15:32;14.45;;;6.28;;
69991;SDS011;57332;51.320;-0.580;2023-06-10T05:17:59;14.25;;;6.75;;
69991;SDS011;57332;51.320;-0.580;2023-06-10T05:20:29;15.43;;;6.90;;
69991;SDS011;57332;51.320;-0.580;2023-06-10T05:22:56;17.98;;;6.57;;
69991;SDS011;57332;51.320;-0.580;2023-06-10T05:25:25;16.70;;;6.13;;
69991;SDS011;57332;51.320;-0.580;2023-06-10T05:27:52;14.00;;;6.32;;
69991;SDS011;57332;51.320;-0.580;2023-06-10T05:30:18;13.40;;;6.60;;
69991;SDS011;57332;51.320;-0.580;2023-06-10T05:32:45;14.52;;;6.80;;
69991;SDS011;57332;51.320;-0.580;2023-06-10T05:35:12;19.45;;;6.63;;
69991;SDS011;57332;51.320;-0.580;2023-06-10T05:37:39;16.92;;;7.43;;
69991;SDS011;57332;51.320;-0.580;2023-06-10T05:40:06;16.23;;;6.82;;
69991;SDS011;57332;51.320;-0.580;2023-06-10T05:42:33;15.90;;;6.80;;
69991;SDS011;57332;51.320;-0.580;2023-06-10T05:45:01;14.63;;;6.13;;
69991;SDS011;57332;51.320;-0.580;2023-06-10T05:47:27;13.50;;;6.63;;
69991;SDS011;57332;51.320;-0.580;2023-06-10T05:49:55;14.30;;;6.50;;
69991;SDS011;57332;51.320;-0.580;2023-06-10T05:52:22;14.85;;;6.50;;
69991;SDS011;57332;51.320;-0.580;2023-06-10T05:54:49;15.52;;;6.68;;
69991;SDS011;57332;51.320;-0.580;2023-06-10T05:57:16;14.60;;;6.10;;
69991;SDS011;57332;51.320;-0.580;2023-06-10T05:59:43;17.55;;;6.57;;
69991;SDS011;57332;51.320;-0.580;2023-06-10T06:02:10;15.38;;;6.68;;
69991;SDS011;57332;51.320;-0.580;2023-06-10T06:04:37;14.60;;;6.32;;
69991;SDS011;57332;51.320;-0.580;2023-06-10T06:07:04;18.63;;;6.43;;
69991;SDS011;57332;51.320;-0.580;2023-06-10T06:09:32;16.40;;;7.15;;
69991;SDS011;57332;51.320;-0.580;2023-06-10T06:11:59;20.08;;;7.18;;
69991;SDS011;57332;51.320;-0.580;2023-06-10T06:14:26;15.73;;;6.28;;
69991;SDS011;57332;51.320;-0.580;2023-06-10T06:16:53;16.88;;;6.80;;
69991;SDS011;57332;51.320;-0.580;2023-06-10T06:19:19;16.65;;;6.72;;
69991;SDS011;57332;51.320;-0.580;2023-06-10T06:21:46;14.13;;;6.22;;
69991;SDS011;57332;51.320;-0.580;2023-06-10T06:24:13;14.38;;;6.82;;
69991;SDS011;57332;51.320;-0.580;2023-06-10T06:26:40;16.55;;;6.68;;
69991;SDS011;57332;51.320;-0.580;2023-06-10T06:29:07;14.80;;;5.75;;
69991;SDS011;57332;51.320;-0.580;2023-06-10T06:31:34;17.40;;;7.80;;
69991;SDS011;57332;51.320;-0.580;2023-06-10T06:34:01;16.73;;;6.30;;
69991;SDS011;57332;51.320;-0.580;2023-06-10T06:36:28;19.48;;;6.63;;
69991;SDS011;57332;51.320;-0.580;2023-06-10T06:38:55;18.55;;;7.28;;
69991;SDS011;57332;51.320;-0.580;2023-06-10T06:41:22;15.95;;;6.78;;
69991;SDS011;57332;51.320;-0.580;2023-06-10T06:43:49;17.08;;;6.50;;
69991;SDS011;57332;51.320;-0.580;2023-06-10T06:46:16;14.38;;;6.10;;
69991;SDS011;57332;51.320;-0.580;2023-06-10T06:48:43;15.95;;;6.60;;
69991;SDS011;57332;51.320;-0.580;2023-06-10T06:51:11;15.40;;;6.32;;
69991;SDS011;57332;51.320;-0.580;2023-06-10T06:53:38;13.75;;;5.93;;
69991;SDS011;57332;51.320;-0.580;2023-06-10T06:56:11;13.00;;;6.38;;
69991;SDS011;57332;51.320;-0.580;2023-06-10T06:58:38;13.43;;;6.43;;
69991;SDS011;57332;51.320;-0.580;2023-06-10T07:01:05;14.52;;;6.40;;
69991;SDS011;57332;51.320;-0.580;2023-06-10T07:03:32;14.98;;;6.50;;
69991;SDS011;57332;51.320;-0.580;2023-06-10T07:05:59;13.80;;;5.95;;
69991;SDS011;57332;51.320;-0.580;2023-06-10T07:08:26;15.52;;;6.07;;
69991;SDS011;57332;51.320;-0.580;2023-06-10T07:10:53;14.20;;;6.43;;
69991;SDS011;57332;51.320;-0.580;2023-06-10T07:13:20;20.73;;;6.45;;
69991;SDS011;57332;51.320;-0.580;2023-06-10T07:15:47;12.32;;;6.07;;
69991;SDS011;57332;51.320;-0.580;2023-06-10T07:18:14;16.45;;;6.47;;
69991;SDS011;57332;51.320;-0.580;2023-06-10T07:20:41;18.55;;;5.97;;
69991;SDS011;57332;51.320;-0.580;2023-06-10T07:23:08;14.93;;;6.03;;
69991;SDS011;57332;51.320;-0.580;2023-06-10T07:25:35;15.45;;;6.15;;
69991;SDS011;57332;51.320;-0.580;2023-06-10T07:28:02;13.90;;;6.82;;
69991;SDS011;57332;51.320;-0.580;2023-06-10T07:30:29;12.90;;;5.97;;
69991;SDS011;57332;51.320;-0.580;2023-06-10T07:32:56;18.40;;;6.50;;
69991;SDS011;57332;51.320;-0.580;2023-06-10T07:35:23;14.25;;;6.15;;
69991;SDS011;57332;51.320;-0.580;2023-06-10T07:37:50;18.13;;;6.45;;
69991;SDS011;57332;51.320;-0.580;2023-06-10T07:40:17;15.48;;;6.65;;
69991;SDS011;57332;51.320;-0.580;2023-06-10T07:42:44;12.68;;;6.43;;
69991;SDS011;57332;51.320;-0.580;2023-06-10T07:45:11;14.43;;;5.68;;
69991;SDS011;57332;51.320;-0.580;2023-06-10T07:47:38;16.63;;;6.50;;
69991;SDS011;57332;51.320;-0.580;2023-06-10T07:50:05;17.55;;;6.80;;
69991;SDS011;57332;51.320;-0.580;2023-06-10T07:52:32;16.52;;;6.97;;
69991;SDS011;57332;51.320;-0.580;2023-06-10T07:54:59;15.38;;;6.72;;
69991;SDS011;57332;51.320;-0.580;2023-06-10T07:57:26;16.05;;;6.57;;
69991;SDS011;57332;51.320;-0.580;2023-06-10T07:59:53;13.10;;;6.47;;
69991;SDS011;57332;51.320;-0.580;2023-06-10T08:02:21;14.70;;;6.22;;
69991;SDS011;57332;51.320;-0.580;2023-06-10T08:04:51;12.77;;;6.65;;
69991;SDS011;57332;51.320;-0.580;2023-06-10T08:07:18;16.00;;;5.93;;
69991;SDS011;57332;51.320;-0.580;2023-06-10T08:09:45;13.45;;;6.38;;
69991;SDS011;57332;51.320;-0.580;2023-06-10T08:12:12;13.82;;;6.55;;
69991;SDS011;57332;51.320;-0.580;2023-06-10T08:14:39;13.18;;;6.22;;
69991;SDS011;57332;51.320;-0.580;2023-06-10T08:17:06;15.82;;;7.10;;
69991;SDS011;57332;51.320;-0.580;2023-06-10T08:19:33;13.07;;;6.57;;
69991;SDS011;57332;51.320;-0.580;2023-06-10T08:22:00;16.00;;;6.43;;
69991;SDS011;57332;51.320;-0.580;2023-06-10T08:24:27;13.68;;;6.65;;
69991;SDS011;57332;51.320;-0.580;2023-06-10T08:26:54;15.90;;;7.03;;
69991;SDS011;57332;51.320;-0.580;2023-06-10T08:29:23;14.23;;;6.93;;
69991;SDS011;57332;51.320;-0.580;2023-06-10T08:31:50;11.05;;;6.65;;
69991;SDS011;57332;51.320;-0.580;2023-06-10T08:34:17;14.43;;;6.78;;
69991;SDS011;57332;51.320;-0.580;2023-06-10T08:36:43;16.13;;;6.88;;
69991;SDS011;57332;51.320;-0.580;2023-06-10T08:39:12;15.98;;;6.90;;
69991;SDS011;57332;51.320;-0.580;2023-06-10T08:41:41;13.52;;;6.50;;
69991;SDS011;57332;51.320;-0.580;2023-06-10T08:46:42;14.95;;;6.60;;
69991;SDS011;57332;51.320;-0.580;2023-06-10T08:49:10;13.50;;;7.22;;
69991;SDS011;57332;51.320;-0.580;2023-06-10T08:51:37;13.57;;;6.18;;
69991;SDS011;57332;51.320;-0.580;2023-06-10T08:54:08;12.45;;;6.20;;
69991;SDS011;57332;51.320;-0.580;2023-06-10T08:56:39;23.60;;;6.90;;
69991;SDS011;57332;51.320;-0.580;2023-06-10T08:59:06;13.02;;;6.13;;
69991;SDS011;57332;51.320;-0.580;2023-06-10T09:01:33;11.27;;;6.60;;
69991;SDS011;57332;51.320;-0.580;2023-06-10T09:04:00;13.02;;;6.78;;
69991;SDS011;57332;51.320;-0.580;2023-06-10T09:06:28;13.13;;;6.60;;
69991;SDS011;57332;51.320;-0.580;2023-06-10T09:08:55;16.60;;;6.70;;
69991;SDS011;57332;51.320;-0.580;2023-06-10T09:11:22;13.82;;;6.50;;
69991;SDS011;57332;51.320;-0.580;2023-06-10T09:13:49;11.15;;;6.38;;
69991;SDS011;57332;51.320;-0.580;2023-06-10T09:16:16;12.77;;;6.80;;
69991;SDS011;57332;51.320;-0.580;2023-06-10T09:18:43;14.23;;;6.82;;
69991;SDS011;57332;51.320;-0.580;2023-06-10T09:21:10;14.48;;;7.25;;
69991;SDS011;57332;51.320;-0.580;2023-06-10T09:23:37;16.40;;;6.53;;
69991;SDS011;57332;51.320;-0.580;2023-06-10T09:26:07;13.25;;;6.82;;
69991;SDS011;57332;51.320;-0.580;2023-06-10T09:28:36;12.32;;;6.38;;
69991;SDS011;57332;51.320;-0.580;2023-06-10T09:31:03;11.43;;;6.43;;
69991;SDS011;57332;51.320;-0.580;2023-06-10T09:33:32;14.05;;;6.22;;
69991;SDS011;57332;51.320;-0.580;2023-06-10T09:36:00;16.45;;;6.75;;
69991;SDS011;57332;51.320;-0.580;2023-06-10T09:38:33;16.13;;;6.93;;
69991;SDS011;57332;51.320;-0.580;2023-06-10T09:41:00;14.50;;;7.00;;
69991;SDS011;57332;51.320;-0.580;2023-06-10T09:43:39;13.07;;;6.55;;
69991;SDS011;57332;51.320;-0.580;2023-06-10T09:46:07;11.70;;;6.15;;
69991;SDS011;57332;51.320;-0.580;2023-06-10T09:48:34;17.73;;;7.05;;
69991;SDS011;57332;51.320;-0.580;2023-06-10T09:51:01;14.13;;;6.45;;
69991;SDS011;57332;51.320;-0.580;2023-06-10T09:53:32;13.48;;;6.30;;
69991;SDS011;57332;51.320;-0.580;2023-06-10T09:55:59;14.45;;;7.38;;
69991;SDS011;57332;51.320;-0.580;2023-06-10T09:58:36;13.43;;;6.97;;
69991;SDS011;57332;51.320;-0.580;2023-06-10T10:01:07;14.23;;;6.65;;
69991;SDS011;57332;51.320;-0.580;2023-06-10T10:03:42;12.43;;;6.82;;
69991;SDS011;57332;51.320;-0.580;2023-06-10T10:06:09;11.50;;;6.80;;
69991;SDS011;57332;51.320;-0.580;2023-06-10T10:08:36;11.40;;;7.43;;
69991;SDS011;57332;51.320;-0.580;2023-06-10T10:11:03;15.40;;;7.28;;
69991;SDS011;57332;51.320;-0.580;2023-06-10T10:13:31;14.88;;;7.25;;
69991;SDS011;57332;51.320;-0.580;2023-06-10T10:16:01;14.68;;;7.25;;
69991;SDS011;57332;51.320;-0.580;2023-06-10T10:18:29;10.63;;;6.68;;
69991;SDS011;57332;51.320;-0.580;2023-06-10T10:20:57;12.45;;;6.75;;
69991;SDS011;57332;51.320;-0.580;2023-06-10T10:23:33;13.35;;;7.05;;
69991;SDS011;57332;51.320;-0.580;2023-06-10T10:26:03;14.20;;;6.80;;
69991;SDS011;57332;51.320;-0.580;2023-06-10T10:28:48;12.23;;;7.25;;
69991;SDS011;57332;51.320;-0.580;2023-06-10T10:31:18;13.57;;;7.20;;
69991;SDS011;57332;51.320;-0.580;2023-06-10T10:33:48;12.18;;;6.63;;
69991;SDS011;57332;51.320;-0.580;2023-06-10T10:36:18;11.55;;;7.18;;
69991;SDS011;57332;51.320;-0.580;2023-06-10T10:38:46;15.20;;;7.28;;
69991;SDS011;57332;51.320;-0.580;2023-06-10T10:41:18;12.02;;;6.45;;
69991;SDS011;57332;51.320;-0.580;2023-06-10T10:43:45;12.40;;;7.00;;
69991;SDS011;57332;51.320;-0.580;2023-06-10T10:46:13;12.95;;;7.10;;
69991;SDS011;57332;51.320;-0.580;2023-06-10T10:48:41;13.30;;;7.30;;
69991;SDS011;57332;51.320;-0.580;2023-06-10T10:51:09;11.73;;;7.38;;
69991;SDS011;57332;51.320;-0.580;2023-06-10T10:53:39;13.85;;;7.38;;
69991;SDS011;57332;51.320;-0.580;2023-06-10T10:56:06;13.68;;;7.47;;
69991;SDS011;57332;51.320;-0.580;2023-06-10T10:58:35;14.07;;;7.43;;
69991;SDS011;57332;51.320;-0.580;2023-06-10T11:01:11;15.57;;;7.53;;
69991;SDS011;57332;51.320;-0.580;2023-06-10T11:03:43;11.40;;;7.45;;
69991;SDS011;57332;51.320;-0.580;2023-06-10T11:06:14;13.63;;;7.32;;
69991;SDS011;57332;51.320;-0.580;2023-06-10T11:11:17;13.55;;;7.68;;
69991;SDS011;57332;51.320;-0.580;2023-06-10T11:13:57;13.95;;;7.47;;
69991;SDS011;57332;51.320;-0.580;2023-06-10T11:16:25;11.90;;;6.85;;
69991;SDS011;57332;51.320;-0.580;2023-06-10T11:18:55;9.50;;;6.78;;
69991;SDS011;57332;51.320;-0.580;2023-06-10T11:21:25;10.73;;;6.82;;
69991;SDS011;57332;51.320;-0.580;2023-06-10T11:23:57;10.85;;;7.10;;
69991;SDS011;57332;51.320;-0.580;2023-06-10T11:31:29;9.00;;;6.55;;
69991;SDS011;57332;51.320;-0.580;2023-06-10T11:33:57;13.27;;;6.90;;
69991;SDS011;57332;51.320;-0.580;2023-06-10T11:36:25;10.40;;;7.22;;
69991;SDS011;57332;51.320;-0.580;2023-06-10T11:38:56;11.32;;;7.07;;
69991;SDS011;57332;51.320;-0.580;2023-06-10T11:41:23;11.27;;;7.30;;
69991;SDS011;57332;51.320;-0.580;2023-06-10T11:43:52;10.15;;;6.88;;
69991;SDS011;57332;51.320;-0.580;2023-06-10T11:46:20;10.50;;;7.75;;
69991;SDS011;57332;51.320;-0.580;2023-06-10T11:48:57;11.27;;;6.75;;
69991;SDS011;57332;51.320;-0.580;2023-06-10T11:51:28;8.02;;;6.15;;
69991;SDS011;57332;51.320;-0.580;2023-06-10T11:53:55;9.50;;;6.32;;
69991;SDS011;57332;51.320;-0.580;2023-06-10T11:56:22;8.88;;;6.18;;
69991;SDS011;57332;51.320;-0.580;2023-06-10T11:58:53;6.95;;;5.60;;
69991;SDS011;57332;51.320;-0.580;2023-06-10T12:01:21;8.52;;;5.70;;
69991;SDS011;57332;51.320;-0.580;2023-06-10T12:04:04;11.65;;;7.88;;
69991;SDS011;57332;51.320;-0.580;2023-06-10T12:06:38;7.72;;;5.47;;
69991;SDS011;57332;51.320;-0.580;2023-06-10T12:09:07;8.27;;;6.28;;
69991;SDS011;57332;51.320;-0.580;2023-06-10T12:12:03;8.98;;;5.78;;
69991;SDS011;57332;51.320;-0.580;2023-06-10T12:17:15;8.30;;;5.57;;
69991;SDS011;57332;51.320;-0.580;2023-06-10T12:19:43;7.82;;;5.40;;
69991;SDS011;57332;51.320;-0.580;2023-06-10T12:22:09;9.32;;;6.25;;
69991;SDS011;57332;51.320;-0.580;2023-06-10T12:24:43;6.97;;;5.57;;
69991;SDS011;57332;51.320;-0.580;2023-06-10T12:27:11;10.45;;;5.75;;
69991;SDS011;57332;51.320;-0.580;2023-06-10T12:29:38;8.07;;;5.53;;
69991;SDS011;57332;51.320;-0.580;2023-06-10T12:32:06;7.70;;;5.60;;
69991;SDS011;57332;51.320;-0.580;2023-06-10T12:34:35;8.13;;;6.05;;
69991;SDS011;57332;51.320;-0.580;2023-06-10T12:37:03;7.30;;;5.43;;
69991;SDS011;57332;51.320;-0.580;2023-06-10T12:39:31;6.85;;;5.53;;
69991;SDS011;57332;51.320;-0.580;2023-06-10T12:41:58;7.25;;;5.40;;
69991;SDS011;57332;51.320;-0.580;2023-06-10T12:44:35;7.28;;;5.10;;
69991;SDS011;57332;51.320;-0.580;2023-06-10T12:47:08;7.93;;;6.00;;
69991;SDS011;57332;51.320;-0.580;2023-06-10T12:49:36;8.95;;;6.65;;
69991;SDS011;57332;51.320;-0.580;2023-06-10T12:52:04;8.07;;;6.05;;
69991;SDS011;57332;51.320;-0.580;2023-06-10T12:54:31;9.15;;;5.32;;
69991;SDS011;57332;51.320;-0.580;2023-06-10T12:56:58;6.22;;;4.90;;
69991;SDS011;57332;51.320;-0.580;2023-06-10T12:59:25;7.53;;;4.60;;
69991;SDS011;57332;51.320;-0.580;2023-06-10T13:01:54;5.47;;;4.88;;
69991;SDS011;57332;51.320;-0.580;2023-06-10T13:04:21;8.25;;;6.10;;
69991;SDS011;57332;51.320;-0.580;2023-06-10T13:06:48;6.35;;;5.13;;
69991;SDS011;57332;51.320;-0.580;2023-06-10T13:09:15;6.40;;;5.50;;
69991;SDS011;57332;51.320;-0.580;2023-06-10T13:11:42;8.18;;;5.40;;
69991;SDS011;57332;51.320;-0.580;2023-06-10T13:14:09;7.32;;;5.88;;
69991;SDS011;57332;51.320;-0.580;2023-06-10T13:16:36;7.63;;;5.72;;
69991;SDS011;57332;51.320;-0.580;2023-06-10T13:19:05;6.85;;;5.22;;
69991;SDS011;57332;51.320;-0.580;2023-06-10T13:21:32;8.35;;;5.95;;
69991;SDS011;57332;51.320;-0.580;2023-06-10T13:24:01;6.28;;;5.03;;
69991;SDS011;57332;51.320;-0.580;2023-06-10T13:26:28;6.97;;;5.50;;
69991;SDS011;57332;51.320;-0.580;2023-06-10T13:28:55;7.20;;;5.68;;
69991;SDS011;57332;51.320;-0.580;2023-06-10T13:31:22;6.93;;;5.85;;
69991;SDS011;57332;51.320;-0.580;2023-06-10T13:33:49;6.78;;;5.35;;
69991;SDS011;57332;51.320;-0.580;2023-06-10T13:36:16;6.47;;;5.55;;
69991;SDS011;57332;51.320;-0.580;2023-06-10T13:38:43;5.47;;;4.80;;
69991;SDS011;57332;51.320;-0.580;2023-06-10T13:41:10;7.50;;;5.43;;
69991;SDS011;57332;51.320;-0.580;2023-06-10T13:43:37;7.32;;;5.68;;
69991;SDS011;57332;51.320;-0.580;2023-06-10T13:46:04;8.13;;;5.65;;
69991;SDS011;57332;51.320;-0.580;2023-06-10T13:48:31;6.93;;;5.50;;
69991;SDS011;57332;51.320;-0.580;2023-06-10T13:50:58;7.60;;;5.60;;
69991;SDS011;57332;51.320;-0.580;2023-06-10T13:53:26;6.78;;;5.45;;
69991;SDS011;57332;51.320;-0.580;2023-06-10T13:55:53;6.00;;;5.40;;
69991;SDS011;57332;51.320;-0.580;2023-06-10T13:58:19;6.03;;;5.40;;
69991;SDS011;57332;51.320;-0.580;2023-06-10T14:00:46;6.70;;;5.63;;
69991;SDS011;57332;51.320;-0.580;2023-06-10T14:03:14;7.88;;;5.80;;
69991;SDS011;57332;51.320;-0.580;2023-06-10T14:05:41;8.05;;;6.75;;
69991;SDS011;57332;51.320;-0.580;2023-06-10T14:08:08;7.57;;;5.75;;
69991;SDS011;57332;51.320;-0.580;2023-06-10T14:10:35;8.10;;;6.20;;
69991;SDS011;57332;51.320;-0.580;2023-06-10T14:13:02;6.90;;;5.40;;
69991;SDS011;57332;51.320;-0.580;2023-06-10T14:15:29;8.40;;;5.97;;
69991;SDS011;57332;51.320;-0.580;2023-06-10T14:17:57;6.70;;;6.00;;
69991;SDS011;57332;51.320;-0.580;2023-06-10T14:20:24;7.55;;;6.25;;
69991;SDS011;57332;51.320;-0.580;2023-06-10T14:22:53;7.25;;;5.80;;
69991;SDS011;57332;51.320;-0.580;2023-06-10T14:25:20;7.03;;;5.90;;
69991;SDS011;57332;51.320;-0.580;2023-06-10T14:27:47;7.35;;;5.53;;
69991;SDS011;57332;51.320;-0.580;2023-06-10T14:30:14;7.45;;;5.75;;
69991;SDS011;57332;51.320;-0.580;2023-06-10T14:32:41;6.50;;;5.88;;
69991;SDS011;57332;51.320;-0.580;2023-06-10T14:35:08;9.48;;;6.18;;
69991;SDS011;57332;51.320;-0.580;2023-06-10T14:37:36;7.22;;;5.82;;
69991;SDS011;57332;51.320;-0.580;2023-06-10T14:40:04;7.22;;;5.68;;
69991;SDS011;57332;51.320;-0.580;2023-06-10T14:42:31;6.68;;;5.80;;